createdAt,value
2022-09-07T00:01:01.944Z,8.99
2022-09-07T00:03:30.359Z,9.23
2022-09-07T00:05:58.343Z,9.45
2022-09-07T00:08:29.736Z,9.59
2022-09-07T00:11:03.949Z,9.68
2022-09-07T00:13:34.537Z,9.37
2022-09-07T00:16:07.657Z,8.81
2022-09-07T00:18:35.851Z,8.36
2022-09-07T00:21:06.967Z,8.02
2022-09-07T00:23:36.427Z,7.81
2022-09-07T00:26:07.784Z,7.79
2022-09-07T00:28:36.660Z,8.14
2022-09-07T00:31:05.461Z,8.51
2022-09-07T00:33:33.190Z,8.77
2022-09-07T00:36:01.278Z,8.94
2022-09-07T00:38:29.191Z,9.02
2022-09-07T00:40:57.083Z,8.70
2022-09-07T00:43:40.780Z,8.19
2022-09-07T00:46:16.739Z,7.81
2022-09-07T00:48:53.546Z,7.67
2022-09-07T00:51:29.236Z,7.99
2022-09-07T00:54:01.763Z,8.29
2022-09-07T00:56:33.101Z,8.49
2022-09-07T00:59:00.966Z,8.65
2022-09-07T01:01:29.855Z,8.76
2022-09-07T01:03:59.656Z,8.85
2022-09-07T01:06:33.742Z,8.69
2022-09-07T01:09:10.520Z,8.10
2022-09-07T01:11:39.216Z,7.65
2022-09-07T01:14:09.581Z,7.46
2022-09-07T01:17:07.336Z,7.47
2022-09-07T01:20:06.084Z,7.82
2022-09-07T01:23:11.808Z,8.14
2022-09-07T01:26:00.593Z,8.38
2022-09-07T01:28:31.491Z,8.53
2022-09-07T01:31:03.763Z,8.65
2022-09-07T01:33:59.773Z,8.73
2022-09-07T01:36:27.748Z,8.75
2022-09-07T01:39:00.537Z,8.39
2022-09-07T01:41:43.635Z,7.80
2022-09-07T01:44:32.409Z,7.43
2022-09-07T01:47:21.682Z,7.71
2022-09-07T01:49:56.670Z,8.01
2022-09-07T01:52:42.879Z,8.12
2022-09-07T01:55:18.886Z,7.72
2022-09-07T01:57:55.646Z,7.16
2022-09-07T02:00:23.662Z,6.85
2022-09-07T02:03:15.130Z,6.87
2022-09-07T02:06:07.673Z,6.88
2022-09-07T02:08:47.848Z,7.26
2022-09-07T02:11:23.756Z,7.58
2022-09-07T02:13:51.358Z,7.82
2022-09-07T02:16:27.172Z,7.99
2022-09-07T02:18:57.170Z,8.13
2022-09-07T02:21:31.606Z,8.24
2022-09-07T02:24:41.202Z,8.34
2022-09-07T02:27:14.339Z,8.41
2022-09-07T02:29:43.589Z,8.44
2022-09-07T02:32:11.708Z,8.50
2022-09-07T02:34:39.693Z,8.52
2022-09-07T02:37:09.142Z,8.53
2022-09-07T02:39:37.670Z,8.55
2022-09-07T02:42:05.787Z,8.55
2022-09-07T02:44:36.228Z,8.56
2022-09-07T02:47:09.866Z,8.29
2022-09-07T02:49:51.173Z,7.66
2022-09-07T02:52:31.682Z,7.09
2022-09-07T02:55:24.485Z,6.77
2022-09-07T02:58:02.072Z,7.10
2022-09-07T03:00:34.435Z,7.43
2022-09-07T03:03:16.829Z,7.66
2022-09-07T03:06:07.909Z,7.83
2022-09-07T03:08:44.357Z,7.96
2022-09-07T03:11:13.219Z,8.04
2022-09-07T03:13:41.048Z,8.11
2022-09-07T03:16:13.822Z,8.16
2022-09-07T03:18:42.910Z,8.21
2022-09-07T03:21:11.343Z,8.25
2022-09-07T03:23:39.522Z,8.30
2022-09-07T03:26:07.401Z,8.33
2022-09-07T03:28:35.100Z,8.35
2022-09-07T03:31:03.348Z,8.38
2022-09-07T03:33:31.196Z,8.39
2022-09-07T03:36:01.339Z,8.40
2022-09-07T03:38:30.770Z,8.39
2022-09-07T03:41:03.199Z,8.36
2022-09-07T03:43:32.210Z,8.32
2022-09-07T03:46:02.497Z,8.28
2022-09-07T03:48:32.000Z,8.24
2022-09-07T03:51:01.611Z,8.21
2022-09-07T03:53:34.071Z,8.16
2022-09-07T03:56:11.519Z,8.13
2022-09-07T03:58:39.766Z,8.11
2022-09-07T04:01:10.990Z,8.10
2022-09-07T04:03:39.738Z,8.08
2022-09-07T04:06:08.100Z,8.07
2022-09-07T04:08:37.613Z,8.05
2022-09-07T04:11:06.950Z,8.04
2022-09-07T04:13:35.989Z,8.05
2022-09-07T04:16:16.572Z,8.05
2022-09-07T04:18:44.900Z,8.05
2022-09-07T04:21:13.229Z,8.06
2022-09-07T04:23:42.485Z,7.87
2022-09-07T04:26:15.292Z,7.26
2022-09-07T04:28:43.180Z,6.72
2022-09-07T04:31:12.476Z,6.39
2022-09-07T04:33:40.419Z,6.37
2022-09-07T04:36:09.456Z,6.57
2022-09-07T04:38:37.463Z,6.54
2022-09-07T04:41:10.233Z,6.41
2022-09-07T04:43:39.426Z,6.63
2022-09-07T04:46:33.864Z,6.97
2022-09-07T04:49:06.051Z,7.20
2022-09-07T04:51:34.849Z,7.36
2022-09-07T04:54:04.364Z,7.32
2022-09-07T04:56:33.628Z,7.57
2022-09-07T04:59:02.246Z,8.00
2022-09-07T05:01:30.753Z,8.31
2022-09-07T05:04:02.724Z,8.30
2022-09-07T05:06:30.868Z,7.95
2022-09-07T05:08:59.393Z,7.82
2022-09-07T05:11:29.525Z,8.28
2022-09-07T05:13:59.629Z,8.86
2022-09-07T05:16:27.853Z,9.35
2022-09-07T05:18:58.076Z,9.74
2022-09-07T05:21:28.245Z,9.83
2022-09-07T05:23:57.817Z,9.53
2022-09-07T05:26:28.084Z,9.24
2022-09-07T05:31:43.840Z,8.92
2022-09-07T05:36:59.704Z,9.76
2022-09-07T05:39:28.129Z,10.50
2022-09-07T05:41:56.033Z,10.93
2022-09-07T05:47:12.085Z,10.82
2022-09-07T05:49:40.021Z,10.74
2022-09-07T05:52:08.271Z,10.70
2022-09-07T05:54:36.253Z,10.70
2022-09-07T05:57:04.467Z,10.78
2022-09-07T05:59:32.325Z,10.90
2022-09-07T06:02:00.098Z,11.04
2022-09-07T06:04:28.101Z,11.16
2022-09-07T06:07:21.681Z,11.30
2022-09-07T06:12:31.649Z,11.70
2022-09-07T06:15:01.433Z,11.86
2022-09-07T06:17:30.041Z,11.93
2022-09-07T06:19:58.211Z,12.04
2022-09-07T06:22:30.588Z,12.20
2022-09-07T06:24:59.287Z,12.38
2022-09-07T06:27:27.391Z,12.55
2022-09-07T06:29:57.086Z,12.71
2022-09-07T06:35:08.613Z,13.04
2022-09-07T06:37:36.733Z,13.21
2022-09-07T06:40:05.160Z,13.38
2022-09-07T06:42:33.064Z,13.56
2022-09-07T06:45:00.790Z,13.73
2022-09-07T06:47:28.649Z,13.91
2022-09-07T06:49:56.549Z,14.08
2022-09-07T06:52:24.311Z,14.22
2022-09-07T06:54:59.359Z,14.36
2022-09-07T06:57:28.071Z,14.54
2022-09-07T06:59:56.008Z,14.77
2022-09-07T07:02:23.734Z,15.04
2022-09-07T07:04:51.721Z,15.23
2022-09-07T07:07:19.472Z,15.41
2022-09-07T07:09:50.102Z,15.61
2022-09-07T07:14:45.386Z,16.00
2022-09-07T07:17:13.645Z,16.15
2022-09-07T07:19:41.425Z,16.30
2022-09-07T07:22:45.458Z,16.41
2022-09-07T07:24:57.247Z,16.51
2022-09-07T07:27:25.332Z,16.64
2022-09-07T07:29:53.879Z,16.80
2022-09-07T07:32:21.793Z,16.98
2022-09-07T07:34:49.542Z,17.13
2022-09-07T07:37:17.375Z,17.29
2022-09-07T07:42:34.138Z,17.62
2022-09-07T07:47:51.552Z,17.86
2022-09-07T07:50:35.098Z,17.93
2022-09-07T07:55:51.393Z,18.07
2022-09-07T07:58:19.566Z,18.14
2022-09-07T08:00:55.854Z,18.25
2022-09-07T08:03:25.168Z,18.38
2022-09-07T08:05:54.045Z,18.50
2022-09-07T08:08:23.601Z,18.50
2022-09-07T08:10:51.413Z,18.53
2022-09-07T08:13:19.288Z,18.64
2022-09-07T08:15:47.502Z,18.76
2022-09-07T08:18:16.975Z,18.82
2022-09-07T08:20:45.357Z,18.80
2022-09-07T08:23:13.117Z,18.83
2022-09-07T08:25:49.983Z,18.83
2022-09-07T08:28:17.706Z,18.91
2022-09-07T08:30:45.449Z,19.23
2022-09-07T08:33:13.533Z,20.75
2022-09-07T08:35:41.351Z,23.19
2022-09-07T08:38:09.366Z,25.46
2022-09-07T08:40:38.231Z,27.69
2022-09-07T08:43:09.129Z,29.82
2022-09-07T08:45:41.162Z,31.79
2022-09-07T08:48:10.457Z,32.63
2022-09-07T08:50:45.150Z,33.42
2022-09-07T08:53:14.642Z,34.21
2022-09-07T08:55:51.801Z,34.57
2022-09-07T08:58:48.090Z,35.08
2022-09-07T09:01:35.953Z,36.00
2022-09-07T09:04:17.529Z,35.25
2022-09-07T09:07:08.107Z,34.09
2022-09-07T09:10:13.368Z,33.07
2022-09-07T09:13:11.966Z,31.75
2022-09-07T09:15:52.330Z,30.48
2022-09-07T09:18:25.461Z,29.59
2022-09-07T09:20:58.984Z,29.13
2022-09-07T09:23:53.872Z,29.50
2022-09-07T09:26:24.637Z,31.36
2022-09-07T09:28:52.482Z,32.84
2022-09-07T09:31:22.660Z,34.46
2022-09-07T09:34:05.456Z,36.19
2022-09-07T09:36:55.644Z,37.70
2022-09-07T09:39:34.129Z,39.22
2022-09-07T09:42:15.662Z,40.78
2022-09-07T09:44:44.137Z,42.07
2022-09-07T09:47:31.665Z,42.55
2022-09-07T09:53:29.388Z,45.30
2022-09-07T09:55:57.168Z,45.92
2022-09-07T10:01:27.105Z,46.41
2022-09-07T10:03:56.749Z,46.79
2022-09-07T10:06:26.126Z,47.67
2022-09-07T10:08:59.958Z,48.49
2022-09-07T10:12:08.230Z,49.25
2022-09-07T10:14:46.793Z,50.09
2022-09-07T10:17:32.825Z,50.26
2022-09-07T10:20:24.683Z,50.06
2022-09-07T10:22:52.267Z,49.64
2022-09-07T10:25:36.953Z,49.49
2022-09-07T10:28:11.291Z,49.66
2022-09-07T10:31:02.582Z,49.34
2022-09-07T10:37:01.504Z,49.95
2022-09-07T10:39:36.733Z,50.64
2022-09-07T10:42:25.327Z,50.08
2022-09-07T10:44:58.996Z,48.59
2022-09-07T10:48:02.067Z,47.70
2022-09-07T10:50:43.410Z,46.78
2022-09-07T10:53:43.150Z,45.88
2022-09-07T10:56:29.868Z,44.64
2022-09-07T10:59:06.249Z,43.94
2022-09-07T11:01:43.736Z,42.95
2022-09-07T11:04:20.517Z,42.06
2022-09-07T11:06:50.665Z,40.61
2022-09-07T11:09:42.520Z,39.57
2022-09-07T11:12:16.835Z,38.95
2022-09-07T11:14:51.605Z,38.30
2022-09-07T11:17:23.343Z,37.67
2022-09-07T11:20:04.869Z,37.83
2022-09-07T11:22:43.081Z,38.19
2022-09-07T11:25:35.339Z,37.83
2022-09-07T11:28:10.029Z,36.89
2022-09-07T11:30:44.482Z,35.54
2022-09-07T11:33:20.050Z,34.26
2022-09-07T11:35:54.682Z,33.49
2022-09-07T11:38:39.387Z,32.52
2022-09-07T11:41:40.259Z,32.08
2022-09-07T11:44:32.905Z,32.20
2022-09-07T11:47:10.078Z,31.91
2022-09-07T11:49:38.161Z,31.56
2022-09-07T11:52:18.309Z,31.32
2022-09-07T11:54:53.415Z,30.76
2022-09-07T11:58:13.721Z,29.95
2022-09-07T12:00:51.988Z,29.15
2022-09-07T12:03:25.736Z,28.45
2022-09-07T12:06:05.800Z,27.84
2022-09-07T12:08:58.422Z,27.28
2022-09-07T12:11:32.068Z,26.74
2022-09-07T12:14:16.186Z,26.32
2022-09-07T12:17:23.837Z,25.92
2022-09-07T12:20:10.334Z,25.49
2022-09-07T12:22:38.165Z,25.37
2022-09-07T12:25:10.134Z,25.40
2022-09-07T12:27:38.796Z,25.30
2022-09-07T12:30:06.932Z,24.96
2022-09-07T12:32:55.296Z,24.72
2022-09-07T12:35:26.651Z,24.43
2022-09-07T12:37:56.282Z,24.13
2022-09-07T12:40:36.229Z,23.95
2022-09-07T12:43:13.023Z,24.09
2022-09-07T12:45:41.681Z,24.18
2022-09-07T12:48:15.027Z,24.16
2022-09-07T12:50:56.086Z,24.07
2022-09-07T12:53:31.001Z,24.07
2022-09-07T12:56:21.721Z,24.04
2022-09-07T12:59:01.680Z,23.90
2022-09-07T13:01:34.523Z,23.63
2022-09-07T13:04:28.969Z,23.34
2022-09-07T13:07:27.492Z,23.05
2022-09-07T13:10:03.999Z,22.77
2022-09-07T13:15:32.386Z,22.39
2022-09-07T13:18:00.801Z,22.19
2022-09-07T13:20:36.141Z,22.02
2022-09-07T13:23:26.311Z,21.93
2022-09-07T13:25:55.913Z,21.88
2022-09-07T13:28:28.464Z,21.79
2022-09-07T13:30:56.433Z,21.68
2022-09-07T13:33:24.231Z,21.56
2022-09-07T13:35:54.460Z,21.51
2022-09-07T13:38:22.908Z,21.43
2022-09-07T13:40:52.357Z,21.39
2022-09-07T13:43:22.349Z,21.39
2022-09-07T13:45:52.991Z,21.39
2022-09-07T13:48:26.735Z,21.37
2022-09-07T13:51:19.317Z,21.35
2022-09-07T13:53:56.187Z,21.35
2022-09-07T13:56:41.437Z,21.32
2022-09-07T13:59:18.710Z,21.28
2022-09-07T14:01:48.141Z,21.26
2022-09-07T14:04:25.334Z,21.28
2022-09-07T14:07:03.095Z,21.34
2022-09-07T14:09:30.952Z,21.37
2022-09-07T14:11:58.642Z,21.34
2022-09-07T14:14:29.439Z,21.33
2022-09-07T14:17:00.032Z,21.39
2022-09-07T14:19:41.281Z,21.41
2022-09-07T14:22:23.269Z,21.35
2022-09-07T14:24:54.155Z,21.35
2022-09-07T14:27:26.169Z,21.31
2022-09-07T14:29:54.625Z,21.33
2022-09-07T14:32:24.328Z,21.34
2022-09-07T14:34:52.739Z,21.48
2022-09-07T14:37:22.875Z,21.90
2022-09-07T14:39:51.073Z,22.34
2022-09-07T14:42:23.626Z,22.73
2022-09-07T14:45:18.890Z,23.08
2022-09-07T14:47:49.032Z,23.31
2022-09-07T14:50:20.558Z,23.24
2022-09-07T14:55:41.423Z,22.82
2022-09-07T14:58:15.338Z,22.69
2022-09-07T15:03:39.754Z,22.23
2022-09-07T15:07:00.514Z,22.03
2022-09-07T15:08:58.328Z,21.80
2022-09-07T15:11:35.402Z,21.61
2022-09-07T15:14:10.382Z,21.44
2022-09-07T15:16:41.396Z,21.25
2022-09-07T15:19:15.571Z,21.07
2022-09-07T15:21:44.046Z,20.91
2022-09-07T15:24:12.171Z,20.80
2022-09-07T15:29:31.657Z,20.60
2022-09-07T15:32:04.449Z,20.49
2022-09-07T15:34:34.378Z,20.40
2022-09-07T15:37:03.652Z,20.33
2022-09-07T15:39:34.426Z,20.25
2022-09-07T15:42:59.649Z,20.16
2022-09-07T15:44:51.135Z,20.09
2022-09-07T15:50:07.897Z,19.97
2022-09-07T15:52:35.801Z,19.89
2022-09-07T15:55:03.672Z,19.82
2022-09-07T16:00:19.753Z,19.68
2022-09-07T16:03:05.691Z,19.60
2022-09-07T16:05:34.518Z,19.51
2022-09-07T16:10:53.881Z,19.33
2022-09-07T16:13:24.130Z,19.23
2022-09-07T16:15:52.333Z,19.12
2022-09-07T16:18:20.433Z,19.01
2022-09-07T16:20:52.683Z,18.91
2022-09-07T16:23:21.185Z,18.81
2022-09-07T16:25:59.991Z,18.70
2022-09-07T16:28:28.655Z,18.58
2022-09-07T16:30:56.855Z,18.48
2022-09-07T16:33:33.140Z,18.38
2022-09-07T16:36:09.382Z,18.25
2022-09-07T16:38:45.490Z,18.13
2022-09-07T16:41:20.020Z,18.00
2022-09-07T16:43:49.485Z,17.86
2022-09-07T16:46:19.827Z,17.72
2022-09-07T16:48:48.245Z,17.57
2022-09-07T16:51:17.628Z,17.43
2022-09-07T16:53:48.906Z,17.28
2022-09-07T16:56:22.848Z,17.14
2022-09-07T16:58:53.003Z,16.98
2022-09-07T17:01:26.519Z,16.84
2022-09-07T17:03:55.282Z,16.69
2022-09-07T17:06:25.005Z,16.53
2022-09-07T17:08:53.221Z,16.38
2022-09-07T17:11:23.300Z,16.22
2022-09-07T17:13:52.345Z,16.05
2022-09-07T17:16:25.163Z,15.89
2022-09-07T17:21:41.797Z,15.53
2022-09-07T17:24:11.201Z,15.35
2022-09-07T17:26:42.311Z,15.18
2022-09-07T17:29:13.232Z,15.01
2022-09-07T17:34:30.385Z,14.67
2022-09-07T17:37:00.608Z,14.52
2022-09-07T17:39:29.622Z,14.36
2022-09-07T17:41:58.852Z,14.21
2022-09-07T17:44:30.768Z,14.06
2022-09-07T17:47:00.128Z,13.91
2022-09-07T17:49:29.350Z,13.78
2022-09-07T17:51:58.746Z,13.64
2022-09-07T17:54:27.261Z,13.52
2022-09-07T17:56:54.960Z,13.40
2022-09-07T18:02:13.708Z,13.13
2022-09-07T18:04:42.675Z,13.01
2022-09-07T18:07:10.765Z,12.89
2022-09-07T18:09:39.051Z,12.80
2022-09-07T18:12:06.988Z,12.70
2022-09-07T18:14:34.621Z,12.61
2022-09-07T18:17:02.294Z,12.52
2022-09-07T18:19:30.640Z,12.43
2022-09-07T18:21:58.291Z,12.34
2022-09-07T18:24:27.314Z,12.27
2022-09-07T18:26:55.413Z,12.18
2022-09-07T18:29:29.329Z,12.10
2022-09-07T18:31:58.117Z,12.05
2022-09-07T18:34:26.585Z,12.01
2022-09-07T18:36:55.173Z,12.00
2022-09-07T18:39:23.118Z,12.01
2022-09-07T18:41:53.853Z,12.05
2022-09-07T18:47:17.529Z,12.14
2022-09-07T18:49:49.184Z,12.19
2022-09-07T18:55:07.237Z,12.23
2022-09-07T18:57:36.329Z,12.22
2022-09-07T19:00:07.517Z,12.20
2022-09-07T19:02:35.929Z,12.16
2022-09-07T19:07:52.117Z,12.04
2022-09-07T19:10:20.122Z,11.98
2022-09-07T19:12:48.026Z,11.93
2022-09-07T19:15:15.769Z,11.89
2022-09-07T19:17:43.864Z,11.84
2022-09-07T19:20:12.672Z,11.79
2022-09-07T19:22:42.904Z,11.75
2022-09-07T19:25:11.263Z,11.71
2022-09-07T19:27:39.454Z,11.68
2022-09-07T19:30:08.028Z,11.65
2022-09-07T19:32:35.858Z,11.61
2022-09-07T19:35:04.131Z,11.58
2022-09-07T19:37:32.735Z,11.55
2022-09-07T19:42:28.830Z,11.49
2022-09-07T19:44:56.439Z,11.48
2022-09-07T19:47:25.701Z,11.46
2022-09-07T19:49:54.162Z,11.45
2022-09-07T19:52:21.877Z,11.44
2022-09-07T19:54:49.545Z,11.42
2022-09-07T19:57:17.407Z,11.41
2022-09-07T19:59:47.298Z,11.42
2022-09-07T20:02:15.036Z,11.41
2022-09-07T20:04:42.900Z,11.42
2022-09-07T20:07:11.734Z,11.44
2022-09-07T20:09:39.605Z,11.45
2022-09-07T20:12:08.044Z,11.46
2022-09-07T20:14:35.703Z,11.47
2022-09-07T20:17:03.678Z,11.47
2022-09-07T20:19:31.410Z,11.46
2022-09-07T20:21:59.069Z,11.45
2022-09-07T20:24:27.699Z,11.43
2022-09-07T20:26:55.435Z,11.41
2022-09-07T20:29:27.641Z,11.38
2022-09-07T20:32:01.106Z,11.36
2022-09-07T20:34:29.233Z,11.33
2022-09-07T20:36:57.247Z,11.31
2022-09-07T20:39:25.646Z,11.29
2022-09-07T20:41:53.696Z,11.26
2022-09-07T20:44:21.513Z,11.25
2022-09-07T20:46:49.175Z,11.25
2022-09-07T20:49:17.206Z,11.24
2022-09-07T20:51:44.933Z,11.21
2022-09-07T20:54:12.737Z,11.19
2022-09-07T20:56:40.412Z,11.18
2022-09-07T20:59:08.515Z,11.18
2022-09-07T21:01:36.614Z,11.16
2022-09-07T21:04:06.005Z,11.13
2022-09-07T21:06:33.829Z,11.10
2022-09-07T21:09:01.622Z,11.06
2022-09-07T21:11:34.461Z,11.04
2022-09-07T21:14:07.506Z,11.02
2022-09-07T21:16:36.055Z,11.00
2022-09-07T21:19:06.874Z,10.98
2022-09-07T21:21:38.938Z,10.97
2022-09-07T21:24:19.035Z,10.95
2022-09-07T21:26:47.587Z,10.91
2022-09-07T21:29:20.955Z,10.85
2022-09-07T21:31:48.847Z,10.79
2022-09-07T21:34:17.060Z,10.73
2022-09-07T21:36:45.480Z,10.68
2022-09-07T21:39:14.870Z,10.62
2022-09-07T21:41:43.402Z,10.56
2022-09-07T21:44:13.387Z,10.52
2022-09-07T21:46:41.753Z,10.47
2022-09-07T21:49:09.722Z,10.41
2022-09-07T21:51:37.831Z,10.34
2022-09-07T21:54:06.116Z,10.28
2022-09-07T21:56:34.699Z,10.25
2022-09-07T21:59:02.905Z,10.22
2022-09-07T22:01:31.760Z,10.18
2022-09-07T22:04:01.805Z,10.16
2022-09-07T22:06:32.219Z,10.14
2022-09-07T22:09:01.392Z,10.13
2022-09-07T22:11:29.862Z,10.12
2022-09-07T22:14:03.480Z,10.12
2022-09-07T22:16:33.073Z,10.12
2022-09-07T22:19:01.060Z,10.12
2022-09-07T22:21:29.919Z,10.12
2022-09-07T22:24:03.604Z,10.12
2022-09-07T22:26:33.813Z,10.10
2022-09-07T22:29:01.733Z,10.09
2022-09-07T22:31:34.469Z,10.08
2022-09-07T22:34:04.221Z,10.07
2022-09-07T22:36:40.789Z,10.06
2022-09-07T22:39:12.296Z,10.04
2022-09-07T22:41:40.362Z,10.02
2022-09-07T22:44:11.287Z,10.00
2022-09-07T22:46:41.566Z,9.97
2022-09-07T22:49:11.751Z,9.93
2022-09-07T22:51:39.413Z,9.88
2022-09-07T22:54:08.026Z,9.86
2022-09-07T22:56:36.607Z,9.85
2022-09-07T22:59:07.511Z,9.81
2022-09-07T23:01:35.988Z,9.77
2022-09-07T23:04:04.470Z,9.81
2022-09-07T23:06:37.359Z,10.34
2022-09-07T23:09:12.742Z,10.39
2022-09-07T23:11:40.554Z,10.13
2022-09-07T23:14:12.890Z,9.92
2022-09-07T23:16:40.660Z,9.77
2022-09-07T23:19:09.969Z,9.65
2022-09-07T23:21:39.736Z,9.67
2022-09-07T23:24:08.551Z,10.22
2022-09-07T23:26:36.175Z,10.80
2022-09-07T23:29:04.900Z,11.23
2022-09-07T23:31:34.420Z,11.46
2022-09-07T23:34:03.010Z,11.16
2022-09-07T23:36:30.812Z,10.79
2022-09-07T23:39:00.147Z,10.50
2022-09-07T23:41:28.497Z,10.28
2022-09-07T23:43:57.013Z,10.10
2022-09-07T23:46:25.010Z,9.96
2022-09-07T23:48:52.951Z,9.85
2022-09-07T23:51:24.103Z,9.74
2022-09-07T23:53:53.509Z,9.71
2022-09-07T23:56:24.713Z,9.86
2022-09-07T23:58:52.428Z,10.18
